createdAt,value
2023-02-14T00:00:48.544Z,-0.10
2023-02-14T00:03:15.853Z,-0.20
2023-02-14T00:05:42.739Z,-0.20
2023-02-14T00:08:09.421Z,-0.10
2023-02-14T00:10:36.080Z,-0.10
2023-02-14T00:13:02.754Z,-0.10
2023-02-14T00:15:29.489Z,-0.20
2023-02-14T00:17:59.519Z,-0.10
2023-02-14T00:20:28.161Z,-0.10
2023-02-14T00:22:55.038Z,-0.30
2023-02-14T00:25:21.741Z,-0.30
2023-02-14T00:27:48.486Z,-0.40
2023-02-14T00:30:15.374Z,-0.50
2023-02-14T00:32:42.669Z,-0.60
2023-02-14T00:35:10.346Z,-0.60
2023-02-14T00:37:37.039Z,-0.60
2023-02-14T00:40:07.005Z,-0.70
2023-02-14T00:42:34.071Z,-0.60
2023-02-14T00:45:00.850Z,-0.60
2023-02-14T00:47:27.574Z,-0.60
2023-02-14T00:49:54.354Z,-0.70
2023-02-14T00:52:21.054Z,-0.70
2023-02-14T00:54:47.706Z,-0.60
2023-02-14T00:57:14.379Z,-0.70
2023-02-14T00:59:41.076Z,-0.70
2023-02-14T01:02:07.819Z,-0.60
2023-02-14T01:04:34.657Z,-0.60
2023-02-14T01:07:01.284Z,-0.70
2023-02-14T01:09:27.976Z,-0.80
2023-02-14T01:11:54.724Z,-0.80
2023-02-14T01:14:21.356Z,-0.70
2023-02-14T01:16:48.243Z,-0.60
2023-02-14T01:19:15.033Z,-0.50
2023-02-14T01:21:41.776Z,-0.40
2023-02-14T01:24:08.709Z,-0.40
2023-02-14T01:26:36.221Z,-0.50
2023-02-14T01:29:04.768Z,-0.50
2023-02-14T01:31:33.479Z,-0.50
2023-02-14T01:34:00.831Z,-0.60
2023-02-14T01:36:39.733Z,-0.70
2023-02-14T01:39:12.322Z,-0.80
2023-02-14T01:41:41.532Z,-0.80
2023-02-14T01:44:28.217Z,-0.80
2023-02-14T01:46:56.360Z,-0.90
2023-02-14T01:49:29.930Z,-0.80
2023-02-14T01:52:06.844Z,-0.80
2023-02-14T01:54:36.084Z,-0.80
2023-02-14T01:57:06.745Z,-0.70
2023-02-14T01:59:38.093Z,-0.70
2023-02-14T02:02:06.305Z,-0.90
2023-02-14T02:04:37.100Z,-0.80
2023-02-14T02:07:07.598Z,-0.80
2023-02-14T02:09:39.603Z,-0.80
2023-02-14T02:12:07.273Z,-0.80
2023-02-14T02:14:34.735Z,-0.80
2023-02-14T02:17:16.431Z,-0.80
2023-02-14T02:20:36.967Z,-0.80
2023-02-14T02:23:37.045Z,-0.70
2023-02-14T02:26:39.784Z,-0.80
2023-02-14T02:29:31.199Z,-0.90
2023-02-14T02:32:28.871Z,-1.00
2023-02-14T02:35:29.835Z,-0.80
2023-02-14T02:38:11.636Z,-0.80
2023-02-14T02:41:10.103Z,-1.10
2023-02-14T02:43:55.479Z,-1.10
2023-02-14T02:47:04.021Z,-1.00
2023-02-14T02:50:17.645Z,-0.90
2023-02-14T02:53:06.426Z,-0.80
2023-02-14T02:56:26.854Z,-0.70
2023-02-14T02:59:20.656Z,-0.70
2023-02-14T03:02:11.077Z,-1.00
2023-02-14T03:04:54.473Z,-1.00
2023-02-14T03:07:35.345Z,-1.00
2023-02-14T03:10:05.000Z,-1.00
2023-02-14T03:12:35.053Z,-1.00
2023-02-14T03:15:24.866Z,-1.10
2023-02-14T03:18:15.980Z,-1.10
2023-02-14T03:21:09.243Z,-1.10
2023-02-14T03:23:42.654Z,-1.10
2023-02-14T03:26:14.248Z,-1.00
2023-02-14T03:29:03.816Z,-1.10
2023-02-14T03:31:43.799Z,-1.10
2023-02-14T03:34:21.236Z,-1.00
2023-02-14T03:37:11.398Z,-1.00
2023-02-14T03:40:06.176Z,-1.00
2023-02-14T03:42:37.632Z,-1.00
2023-02-14T03:45:07.886Z,-1.20
2023-02-14T03:47:39.606Z,-1.10
2023-02-14T03:50:17.286Z,-1.10
2023-02-14T03:52:45.700Z,-1.00
2023-02-14T03:55:16.795Z,-0.90
2023-02-14T03:57:48.964Z,-0.90
2023-02-14T04:00:18.361Z,-1.00
2023-02-14T04:02:54.808Z,-1.00
2023-02-14T04:05:27.226Z,-1.00
2023-02-14T04:07:57.762Z,-1.00
2023-02-14T04:10:26.031Z,-1.10
2023-02-14T04:12:53.142Z,-1.10
2023-02-14T04:15:19.860Z,-1.00
2023-02-14T04:18:05.129Z,-1.00
2023-02-14T04:20:31.872Z,-1.00
2023-02-14T04:22:58.617Z,-1.00
2023-02-14T04:25:25.762Z,-1.00
2023-02-14T04:27:52.594Z,-1.10
2023-02-14T04:30:21.106Z,-1.20
2023-02-14T04:32:47.880Z,-1.20
2023-02-14T04:35:15.130Z,-1.20
2023-02-14T04:37:41.886Z,-1.20
2023-02-14T04:40:09.585Z,-1.20
2023-02-14T04:42:36.277Z,-1.20
2023-02-14T04:45:04.353Z,-1.20
2023-02-14T04:47:31.321Z,-1.00
2023-02-14T04:49:58.269Z,-0.90
2023-02-14T04:52:25.153Z,-0.80
2023-02-14T04:54:51.833Z,-0.70
2023-02-14T04:57:18.578Z,-0.70
2023-02-14T04:59:45.291Z,-0.70
2023-02-14T05:02:12.017Z,-0.60
2023-02-14T05:04:38.812Z,-0.70
2023-02-14T05:07:05.554Z,-0.80
2023-02-14T05:09:32.328Z,-0.80
2023-02-14T05:11:59.019Z,-0.80
2023-02-14T05:14:25.729Z,-0.90
2023-02-14T05:16:52.892Z,-1.10
2023-02-14T05:19:19.796Z,-1.20
2023-02-14T05:21:47.107Z,-1.20
2023-02-14T05:24:13.972Z,-1.20
2023-02-14T05:26:41.083Z,-1.10
2023-02-14T05:29:08.046Z,-1.10
2023-02-14T05:31:34.943Z,-1.00
2023-02-14T05:34:01.795Z,-1.00
2023-02-14T05:36:28.626Z,-1.00
2023-02-14T05:38:55.372Z,-1.10
2023-02-14T05:41:22.091Z,-1.20
2023-02-14T05:43:48.760Z,-1.20
2023-02-14T05:46:15.591Z,-1.30
2023-02-14T05:48:42.350Z,-1.40
2023-02-14T05:51:10.877Z,-1.50
2023-02-14T05:53:37.816Z,-1.50
2023-02-14T05:56:05.328Z,-1.40
2023-02-14T05:58:32.203Z,-1.30
2023-02-14T06:01:00.071Z,-1.20
2023-02-14T06:03:27.441Z,-1.10
2023-02-14T06:05:54.499Z,-1.10
2023-02-14T06:08:21.314Z,-1.00
2023-02-14T06:10:48.126Z,-0.90
2023-02-14T06:13:14.978Z,-0.90
2023-02-14T06:15:41.708Z,-0.90
2023-02-14T06:18:08.420Z,-0.80
2023-02-14T06:20:36.064Z,-0.90
2023-02-14T06:23:02.945Z,-0.90
2023-02-14T06:25:29.632Z,-0.80
2023-02-14T06:27:57.627Z,-0.80
2023-02-14T06:30:25.220Z,-0.90
2023-02-14T06:32:52.334Z,-1.00
2023-02-14T06:35:19.293Z,-1.00
2023-02-14T06:37:46.227Z,-1.10
2023-02-14T06:40:13.793Z,-1.20
2023-02-14T06:42:40.657Z,-1.20
2023-02-14T06:45:08.196Z,-1.30
2023-02-14T06:47:35.296Z,-1.30
2023-02-14T06:50:04.241Z,-1.20
2023-02-14T06:52:34.709Z,-1.10
2023-02-14T06:55:01.437Z,-1.20
2023-02-14T06:57:28.412Z,-1.10
2023-02-14T06:59:55.443Z,-1.10
2023-02-14T07:02:24.757Z,-1.10
2023-02-14T07:04:51.742Z,-1.30
2023-02-14T07:07:18.508Z,-1.20
2023-02-14T07:09:45.449Z,-1.20
2023-02-14T07:12:12.160Z,-1.20
2023-02-14T07:14:38.897Z,-1.20
2023-02-14T07:17:05.714Z,-1.20
2023-02-14T07:19:32.386Z,-1.20
2023-02-14T07:21:59.187Z,-1.30
2023-02-14T07:24:25.876Z,-1.20
2023-02-14T07:26:52.566Z,-1.30
2023-02-14T07:29:19.329Z,-1.40
2023-02-14T07:31:46.278Z,-1.30
2023-02-14T07:34:13.502Z,-1.30
2023-02-14T07:36:40.274Z,-1.30
2023-02-14T07:39:07.056Z,-1.40
2023-02-14T07:41:33.862Z,-1.30
2023-02-14T07:44:00.627Z,-1.20
2023-02-14T07:46:27.490Z,-1.10
2023-02-14T07:48:54.275Z,-1.00
2023-02-14T07:51:21.280Z,-1.00
2023-02-14T07:53:48.423Z,-0.90
2023-02-14T07:56:15.188Z,-0.80
2023-02-14T07:58:42.016Z,-0.90
2023-02-14T08:01:09.111Z,-0.80
2023-02-14T08:03:36.046Z,-0.90
2023-02-14T08:06:03.134Z,-0.90
2023-02-14T08:08:31.850Z,-0.80
2023-02-14T08:11:00.385Z,-0.60
2023-02-14T08:13:27.302Z,-0.60
2023-02-14T08:16:06.268Z,-0.90
2023-02-14T08:18:37.876Z,-0.90
2023-02-14T08:21:06.576Z,-0.90
2023-02-14T08:23:33.447Z,-0.80
2023-02-14T08:26:00.149Z,-0.90
2023-02-14T08:28:27.370Z,-0.90
2023-02-14T08:30:54.421Z,-1.00
2023-02-14T08:33:21.833Z,-1.00
2023-02-14T08:35:48.704Z,-0.90
2023-02-14T08:38:15.436Z,-0.70
2023-02-14T08:40:42.516Z,-0.80
2023-02-14T08:43:09.517Z,-0.70
2023-02-14T08:45:36.375Z,-0.60
2023-02-14T08:48:09.279Z,-0.50
2023-02-14T08:50:37.180Z,-0.40
2023-02-14T08:53:09.477Z,-0.60
2023-02-14T08:55:36.317Z,-0.60
2023-02-14T08:58:03.691Z,-0.70
2023-02-14T09:00:31.453Z,-0.60
2023-02-14T09:02:58.753Z,-0.50
2023-02-14T09:05:26.474Z,-0.40
2023-02-14T09:07:55.955Z,-0.30
2023-02-14T09:10:23.887Z,-0.30
2023-02-14T09:12:50.892Z,-0.10
2023-02-14T09:15:17.679Z,0.10
2023-02-14T09:17:44.731Z,0.20
2023-02-14T09:20:13.580Z,0.30
2023-02-14T09:22:40.418Z,0.30
2023-02-14T09:25:07.378Z,0.10
2023-02-14T09:27:34.443Z,0.30
2023-02-14T09:30:01.245Z,0.40
2023-02-14T09:32:29.230Z,0.60
2023-02-14T09:34:56.071Z,0.70
2023-02-14T09:37:41.325Z,0.90
2023-02-14T09:40:08.676Z,1.10
2023-02-14T09:42:56.689Z,1.20
2023-02-14T09:45:28.944Z,1.20
2023-02-14T09:48:20.718Z,1.30
2023-02-14T09:50:56.334Z,1.20
2023-02-14T09:53:30.130Z,1.20
2023-02-14T09:56:19.375Z,1.30
2023-02-14T09:59:05.182Z,1.40
2023-02-14T10:01:46.092Z,1.50
2023-02-14T10:04:31.352Z,1.50
2023-02-14T10:07:29.986Z,1.50
2023-02-14T10:10:02.777Z,1.70
2023-02-14T10:12:40.140Z,1.60
2023-02-14T10:15:20.346Z,1.60
2023-02-14T10:17:55.362Z,1.70
2023-02-14T10:20:46.005Z,1.80
2023-02-14T10:23:23.012Z,1.90
2023-02-14T10:25:57.532Z,2.00
2023-02-14T10:28:31.349Z,2.20
2023-02-14T10:31:20.126Z,2.20
2023-02-14T10:34:08.610Z,2.20
2023-02-14T10:37:02.783Z,2.00
2023-02-14T10:39:51.352Z,2.10
2023-02-14T10:42:42.762Z,2.10
2023-02-14T10:45:15.551Z,2.20
2023-02-14T10:47:42.193Z,2.40
2023-02-14T10:50:49.793Z,2.60
2023-02-14T10:53:31.753Z,2.50
2023-02-14T10:56:02.366Z,2.40
2023-02-14T10:58:33.447Z,2.60
2023-02-14T11:01:12.205Z,2.60
2023-02-14T11:03:44.028Z,2.20
2023-02-14T11:06:11.420Z,2.40
2023-02-14T11:08:41.020Z,2.40
2023-02-14T11:11:11.708Z,2.60
2023-02-14T11:13:41.612Z,2.60
2023-02-14T11:16:11.328Z,2.90
2023-02-14T11:18:40.996Z,3.10
2023-02-14T11:21:17.613Z,3.20
2023-02-14T11:23:46.514Z,3.20
2023-02-14T11:26:27.104Z,3.30
2023-02-14T11:28:58.126Z,3.30
2023-02-14T11:31:32.736Z,3.50
2023-02-14T11:34:02.403Z,3.70
2023-02-14T11:36:31.410Z,3.80
2023-02-14T11:39:17.527Z,4.10
2023-02-14T11:41:57.861Z,4.30
2023-02-14T11:44:28.079Z,4.30
2023-02-14T11:46:57.741Z,4.30
2023-02-14T11:49:31.378Z,4.30
2023-02-14T11:52:10.454Z,4.30
2023-02-14T11:54:39.948Z,4.20
2023-02-14T11:57:18.666Z,4.10
2023-02-14T11:59:48.292Z,3.90
2023-02-14T12:02:22.928Z,3.90
2023-02-14T12:04:53.375Z,3.90
2023-02-14T12:07:25.827Z,3.90
2023-02-14T12:10:15.757Z,3.90
2023-02-14T12:13:12.436Z,4.00
2023-02-14T12:15:43.412Z,4.20
2023-02-14T12:18:28.993Z,4.30
2023-02-14T12:21:01.950Z,5.00
2023-02-14T12:23:50.775Z,5.20
2023-02-14T12:26:35.211Z,5.40
2023-02-14T12:29:17.424Z,5.40
2023-02-14T12:31:46.205Z,5.50
2023-02-14T12:34:14.657Z,5.80
2023-02-14T12:36:56.136Z,5.90
2023-02-14T12:39:54.375Z,6.10
2023-02-14T12:42:34.431Z,6.10
2023-02-14T12:45:01.093Z,5.90
2023-02-14T12:47:58.022Z,5.70
2023-02-14T12:50:38.646Z,5.80
2023-02-14T12:53:42.368Z,5.80
2023-02-14T12:56:31.478Z,5.70
2023-02-14T12:59:13.096Z,5.60
2023-02-14T13:02:08.558Z,5.50
2023-02-14T13:04:40.579Z,5.70
2023-02-14T13:07:29.415Z,6.00
2023-02-14T13:10:27.600Z,6.20
2023-02-14T13:13:03.839Z,6.10
2023-02-14T13:15:38.997Z,6.20
2023-02-14T13:18:11.549Z,6.20
2023-02-14T13:20:54.668Z,6.10
2023-02-14T13:23:37.852Z,5.90
2023-02-14T13:26:15.950Z,5.50
2023-02-14T13:29:05.370Z,5.60
2023-02-14T13:31:33.163Z,5.90
2023-02-14T13:34:29.392Z,6.20
2023-02-14T13:36:58.716Z,6.50
2023-02-14T13:39:37.951Z,6.50
2023-02-14T13:42:06.643Z,6.50
2023-02-14T13:44:52.703Z,6.40
2023-02-14T13:47:24.554Z,6.20
2023-02-14T13:49:56.876Z,6.00
2023-02-14T13:52:46.081Z,6.20
2023-02-14T13:55:31.645Z,6.10
2023-02-14T13:58:01.464Z,6.10
2023-02-14T14:00:44.641Z,6.10
2023-02-14T14:03:29.932Z,6.30
2023-02-14T14:06:07.820Z,6.50
2023-02-14T14:08:35.112Z,6.50
2023-02-14T14:11:05.245Z,6.60
2023-02-14T14:13:41.223Z,6.70
2023-02-14T14:16:26.745Z,6.70
2023-02-14T14:19:11.953Z,6.60
2023-02-14T14:21:41.412Z,6.50
2023-02-14T14:24:24.309Z,6.40
2023-02-14T14:26:56.500Z,6.00
2023-02-14T14:29:23.264Z,5.80
2023-02-14T14:31:55.555Z,5.90
2023-02-14T14:34:27.560Z,6.10
2023-02-14T14:37:07.305Z,6.10
2023-02-14T14:39:35.629Z,6.10
2023-02-14T14:42:15.418Z,6.10
2023-02-14T14:45:01.663Z,5.80
2023-02-14T14:47:41.868Z,5.70
2023-02-14T14:50:36.647Z,5.80
2023-02-14T14:53:09.741Z,5.70
2023-02-14T14:55:39.687Z,5.80
2023-02-14T14:58:28.045Z,5.80
2023-02-14T15:00:54.781Z,5.70
2023-02-14T15:03:25.363Z,5.70
2023-02-14T15:06:02.193Z,5.80
2023-02-14T15:08:34.342Z,5.90
2023-02-14T15:11:39.789Z,5.80
2023-02-14T15:14:13.495Z,5.60
2023-02-14T15:16:46.105Z,5.10
2023-02-14T15:19:20.634Z,4.90
2023-02-14T15:21:47.539Z,4.70
2023-02-14T15:24:17.121Z,4.50
2023-02-14T15:26:46.651Z,4.40
2023-02-14T15:29:23.300Z,4.20
2023-02-14T15:31:50.656Z,3.90
2023-02-14T15:34:24.432Z,3.90
2023-02-14T15:36:53.912Z,3.80
2023-02-14T15:39:27.291Z,3.70
2023-02-14T15:41:55.597Z,3.40
2023-02-14T15:44:24.247Z,3.10
2023-02-14T15:46:57.466Z,2.70
2023-02-14T15:49:33.223Z,2.50
2023-02-14T15:52:02.934Z,2.40
2023-02-14T15:54:33.818Z,2.40
2023-02-14T15:57:01.913Z,2.40
2023-02-14T15:59:33.427Z,2.40
2023-02-14T16:02:03.714Z,2.30
2023-02-14T16:04:33.908Z,2.30
2023-02-14T16:07:03.576Z,2.30
2023-02-14T16:09:36.225Z,2.30
2023-02-14T16:12:32.157Z,2.30
2023-02-14T16:15:20.232Z,2.30
2023-02-14T16:17:47.741Z,2.30
2023-02-14T16:20:27.013Z,2.20
2023-02-14T16:23:13.502Z,2.20
2023-02-14T16:25:43.746Z,2.20
2023-02-14T16:28:10.464Z,2.10
2023-02-14T16:30:39.715Z,2.00
2023-02-14T16:33:13.679Z,1.90
2023-02-14T16:35:40.503Z,1.80
2023-02-14T16:38:15.795Z,1.70
2023-02-14T16:40:49.226Z,1.70
2023-02-14T16:43:18.745Z,1.70
2023-02-14T16:45:46.329Z,1.70
2023-02-14T16:48:15.754Z,1.70
2023-02-14T16:50:43.923Z,1.70
2023-02-14T16:53:25.004Z,1.70
2023-02-14T16:55:54.140Z,1.70
2023-02-14T16:58:23.425Z,1.70
2023-02-14T17:00:50.390Z,1.70
2023-02-14T17:03:17.087Z,1.70
2023-02-14T17:05:44.167Z,1.70
2023-02-14T17:08:13.061Z,1.70
2023-02-14T17:10:41.762Z,1.60
2023-02-14T17:13:09.840Z,1.50
2023-02-14T17:15:38.279Z,1.50
2023-02-14T17:18:09.858Z,1.50
2023-02-14T17:20:36.622Z,1.40
2023-02-14T17:23:03.711Z,1.40
2023-02-14T17:25:30.493Z,1.50
2023-02-14T17:27:57.330Z,1.50
2023-02-14T17:30:24.337Z,1.60
2023-02-14T17:32:51.193Z,1.50
2023-02-14T17:35:18.245Z,1.30
2023-02-14T17:37:44.980Z,1.20
2023-02-14T17:40:12.919Z,1.30
2023-02-14T17:42:39.681Z,1.30
2023-02-14T17:45:07.720Z,1.20
2023-02-14T17:47:35.250Z,1.20
2023-02-14T17:50:04.042Z,1.00
2023-02-14T17:52:30.913Z,1.10
2023-02-14T17:54:57.653Z,1.00
2023-02-14T17:57:24.383Z,0.80
2023-02-14T17:59:53.094Z,0.70
2023-02-14T18:02:19.905Z,0.50
2023-02-14T18:04:48.287Z,0.50
2023-02-14T18:07:15.184Z,0.60
2023-02-14T18:09:42.254Z,0.60
2023-02-14T18:12:14.690Z,0.70
2023-02-14T18:14:41.956Z,0.70
2023-02-14T18:17:08.735Z,0.80
2023-02-14T18:19:35.437Z,0.90
2023-02-14T18:22:02.107Z,0.90
2023-02-14T18:24:28.845Z,0.90
2023-02-14T18:26:55.680Z,1.00
2023-02-14T18:29:22.800Z,1.00
2023-02-14T18:31:49.613Z,1.00
2023-02-14T18:34:16.404Z,1.00
2023-02-14T18:36:43.113Z,0.90
2023-02-14T18:39:10.527Z,0.80
2023-02-14T18:41:37.650Z,0.80
2023-02-14T18:44:04.944Z,0.80
2023-02-14T18:46:35.556Z,0.70
2023-02-14T18:49:06.575Z,0.70
2023-02-14T18:51:36.140Z,0.70
2023-02-14T18:54:04.504Z,0.60
2023-02-14T18:56:34.195Z,0.60
2023-02-14T18:59:03.888Z,0.60
2023-02-14T19:01:33.395Z,0.60
2023-02-14T19:04:01.315Z,0.60
2023-02-14T19:06:29.823Z,0.60
2023-02-14T19:08:57.471Z,0.60
2023-02-14T19:11:27.431Z,0.60
2023-02-14T19:13:56.993Z,0.50
2023-02-14T19:16:27.113Z,0.30
2023-02-14T19:18:54.606Z,0.10
2023-02-14T19:21:26.946Z,0.00
2023-02-14T19:23:56.383Z,-0.20
2023-02-14T19:26:26.173Z,-0.30
2023-02-14T19:29:03.709Z,-0.30
2023-02-14T19:31:31.056Z,-0.30
2023-02-14T19:33:57.905Z,-0.40
2023-02-14T19:36:24.741Z,-0.50
2023-02-14T19:38:53.438Z,-0.40
2023-02-14T19:41:25.902Z,-0.30
2023-02-14T19:43:52.781Z,-0.10
2023-02-14T19:46:22.572Z,0.00
2023-02-14T19:48:49.703Z,0.10
2023-02-14T19:51:22.798Z,0.20
2023-02-14T19:53:51.442Z,0.00
2023-02-14T19:56:23.669Z,0.00
2023-02-14T19:58:51.686Z,0.10
2023-02-14T20:01:30.568Z,0.10
2023-02-14T20:03:57.508Z,-0.20
2023-02-14T20:06:27.261Z,-0.30
2023-02-14T20:08:54.097Z,-0.40
2023-02-14T20:11:30.096Z,-0.40
2023-02-14T20:13:57.249Z,-0.60
2023-02-14T20:16:26.216Z,-0.60
2023-02-14T20:18:53.739Z,-0.70
2023-02-14T20:21:28.309Z,-0.70
2023-02-14T20:24:00.947Z,-0.60
2023-02-14T20:26:33.040Z,-0.80
2023-02-14T20:29:03.677Z,-0.80
2023-02-14T20:31:32.160Z,-0.80
2023-02-14T20:33:59.555Z,-0.70
2023-02-14T20:36:26.895Z,-0.60
2023-02-14T20:38:58.553Z,-0.40
2023-02-14T20:41:26.176Z,-0.30
2023-02-14T20:43:53.237Z,-0.30
2023-02-14T20:46:21.116Z,-0.30
2023-02-14T20:48:48.259Z,-0.30
2023-02-14T20:51:16.531Z,-0.30
2023-02-14T20:53:44.221Z,-0.30
2023-02-14T20:56:11.952Z,-0.30
2023-02-14T20:58:39.536Z,-0.30
2023-02-14T21:01:13.241Z,-0.30
2023-02-14T21:03:41.919Z,-0.30
2023-02-14T21:06:13.840Z,-0.40
2023-02-14T21:08:42.204Z,-0.90
2023-02-14T21:11:10.982Z,-1.10
2023-02-14T21:13:38.090Z,-1.20
2023-02-14T21:16:11.023Z,-1.20
2023-02-14T21:18:38.895Z,-1.00
2023-02-14T21:21:08.444Z,-0.90
2023-02-14T21:23:35.251Z,-0.80
2023-02-14T21:26:03.992Z,-1.00
2023-02-14T21:28:32.480Z,-1.20
2023-02-14T21:31:10.588Z,-1.20
2023-02-14T21:33:37.982Z,-1.40
2023-02-14T21:36:08.727Z,-1.40
2023-02-14T21:38:36.128Z,-1.40
2023-02-14T21:41:04.974Z,-1.50
2023-02-14T21:43:37.384Z,-1.60
2023-02-14T21:46:09.945Z,-1.40
2023-02-14T21:48:55.632Z,-1.30
2023-02-14T21:51:23.830Z,-1.10
2023-02-14T21:53:50.968Z,-1.00
2023-02-14T21:56:19.850Z,-0.90
2023-02-14T21:58:48.170Z,-0.90
2023-02-14T22:01:22.837Z,-0.90
2023-02-14T22:03:49.958Z,-0.80
2023-02-14T22:06:16.909Z,-0.80
2023-02-14T22:08:44.047Z,-0.70
2023-02-14T22:11:13.278Z,-0.70
2023-02-14T22:13:40.703Z,-0.70
2023-02-14T22:16:13.255Z,-0.80
2023-02-14T22:18:41.344Z,-0.70
2023-02-14T22:21:11.394Z,-0.70
2023-02-14T22:23:38.843Z,-0.70
2023-02-14T22:26:14.653Z,-0.70
2023-02-14T22:28:42.900Z,-0.70
2023-02-14T22:31:11.180Z,-1.10
2023-02-14T22:33:38.503Z,-1.40
2023-02-14T22:36:06.914Z,-1.40
2023-02-14T22:38:34.388Z,-1.30
2023-02-14T22:41:07.156Z,-1.50
2023-02-14T22:43:34.834Z,-1.70
2023-02-14T22:46:10.201Z,-1.60
2023-02-14T22:48:38.242Z,-1.40
2023-02-14T22:51:23.012Z,-1.50
2023-02-14T22:53:51.609Z,-1.40
2023-02-14T22:56:20.936Z,-1.30
2023-02-14T22:58:48.350Z,-1.40
2023-02-14T23:01:19.914Z,-1.30
2023-02-14T23:03:48.034Z,-1.30
2023-02-14T23:06:15.176Z,-1.20
2023-02-14T23:08:43.765Z,-1.00
2023-02-14T23:11:16.339Z,-0.90
2023-02-14T23:14:02.275Z,-0.90
2023-02-14T23:16:48.327Z,-1.00
2023-02-14T23:19:35.895Z,-1.10
2023-02-14T23:22:11.343Z,-1.00
2023-02-14T23:24:38.132Z,-1.10
2023-02-14T23:27:05.959Z,-1.10
2023-02-14T23:29:33.101Z,-1.00
2023-02-14T23:31:59.845Z,-0.90
2023-02-14T23:34:32.081Z,-0.80
2023-02-14T23:36:58.840Z,-0.80
2023-02-14T23:39:25.725Z,-0.90
2023-02-14T23:41:52.834Z,-0.80
2023-02-14T23:44:22.172Z,-0.80
2023-02-14T23:46:51.117Z,-0.80
2023-02-14T23:49:19.374Z,-0.80
2023-02-14T23:51:47.337Z,-0.80
2023-02-14T23:54:14.429Z,-0.80
2023-02-14T23:56:41.221Z,-0.90
2023-02-14T23:59:08.520Z,-0.90
